Pagina principale
METAR-TAF:

METAR-TAF

Aeroporti :

Aigen im Ennstal, Austria

latitudine: 47-32N, longitudine: 014-08E, altezza: 638 m

METAR: mancante

Ora: 10:11 (09:11 UTC)

Previsione

Il bollettino è stato emesso 56 minuti fa, alle 08:15 UTC
Previsione valida dal 21 alle 09 UTC al 21 alle 18 UTC
Vento 3 kt da direzioni variabili
Visibilità: 4000 m
Poco nuvoloso ad un'altezza di 300 ft
Nuvoloso ad un'altezza di 1200 ft
foschia
Evoluzione graduale
dal 21 alle 09 UTC al 21 alle 11 UTC
Poco nuvoloso ad un'altezza di 1000 ft
Nubi sparse ad un'altezza di 10000 ft
Probabilità 30%
dal 21 alle 09 UTC al 21 alle 18 UTC
Visibilità: 7000 m
Poco nuvoloso ad un'altezza di 500 ft
Nuvoloso ad un'altezza di 1000 ft
Probabilità 40% :
Temporaneamente
dal 21 alle 10 UTC al 21 alle 16 UTC
Vento 6 kt da nord-est

TAF: LOXA 210815Z 2109/2118 VRB03KT 4000 BR FEW003 BKN012 BECMG 2109/2111 NSW FEW010 SCT100 PROB30 2109/2118 7000 NSW FEW005 BKN010 PROB40 TEMPO 2110/2116 04006KT

Osservazioni e previsioni meteorologiche di più di 4000 aeroporti (messaggi METAR e TAF).

Le stazioni disponibili sono rappresentate dai dischi gialli e rossi sulla carta.

Puntare il mouse per vedere il nome della stazione.

Clicca sopra per visualizzare le osservazioni e previsioni meteorologiche.

Per cambiare la mappa : fare clic sui pulsanti verdi con una croce nera per ingrandire, il pulsante verde con un trattino per diminuire, o sulla freccia verde per le mappe adiacenti.


METAR-TAF: